sensor_id;sensor_type;location;lat;lon;timestamp;P1;durP1;ratioP1;P2;durP2;ratioP2
77524;SDS011;66638;50.050;21.124;2023-08-06T00:01:43;17.90;;;10.00;;
77524;SDS011;66638;50.050;21.124;2023-08-06T00:04:30;20.40;;;10.40;;
77524;SDS011;66638;50.050;21.124;2023-08-06T00:07:17;17.20;;;10.50;;
77524;SDS011;66638;50.050;21.124;2023-08-06T00:10:04;18.10;;;10.80;;
77524;SDS011;66638;50.050;21.124;2023-08-06T00:12:51;21.20;;;13.00;;
77524;SDS011;66638;50.050;21.124;2023-08-06T00:15:40;22.70;;;11.30;;
77524;SDS011;66638;50.050;21.124;2023-08-06T00:18:27;20.00;;;11.60;;
77524;SDS011;66638;50.050;21.124;2023-08-06T00:21:14;20.40;;;11.50;;
77524;SDS011;66638;50.050;21.124;2023-08-06T00:24:01;16.80;;;10.80;;
77524;SDS011;66638;50.050;21.124;2023-08-06T00:26:48;15.80;;;10.60;;
77524;SDS011;66638;50.050;21.124;2023-08-06T00:29:36;17.70;;;10.20;;
77524;SDS011;66638;50.050;21.124;2023-08-06T00:32:23;19.80;;;11.20;;
77524;SDS011;66638;50.050;21.124;2023-08-06T00:35:11;13.80;;;10.60;;
77524;SDS011;66638;50.050;21.124;2023-08-06T00:38:00;18.00;;;10.90;;
77524;SDS011;66638;50.050;21.124;2023-08-06T00:40:47;20.10;;;11.70;;
77524;SDS011;66638;50.050;21.124;2023-08-06T00:43:34;16.80;;;10.50;;
77524;SDS011;66638;50.050;21.124;2023-08-06T00:46:21;15.00;;;9.80;;
77524;SDS011;66638;50.050;21.124;2023-08-06T00:49:09;13.30;;;9.00;;
77524;SDS011;66638;50.050;21.124;2023-08-06T00:51:57;14.00;;;9.60;;
77524;SDS011;66638;50.050;21.124;2023-08-06T00:54:44;16.50;;;10.30;;
77524;SDS011;66638;50.050;21.124;2023-08-06T00:57:31;16.20;;;11.20;;
77524;SDS011;66638;50.050;21.124;2023-08-06T01:00:19;17.60;;;9.70;;
77524;SDS011;66638;50.050;21.124;2023-08-06T01:03:08;18.60;;;10.60;;
77524;SDS011;66638;50.050;21.124;2023-08-06T01:05:55;15.10;;;10.50;;
77524;SDS011;66638;50.050;21.124;2023-08-06T01:08:58;19.70;;;10.70;;
77524;SDS011;66638;50.050;21.124;2023-08-06T01:11:56;16.50;;;11.00;;
77524;SDS011;66638;50.050;21.124;2023-08-06T01:18:15;14.10;;;10.40;;
77524;SDS011;66638;50.050;21.124;2023-08-06T01:21:02;16.00;;;10.50;;
77524;SDS011;66638;50.050;21.124;2023-08-06T01:23:50;16.60;;;10.90;;
77524;SDS011;66638;50.050;21.124;2023-08-06T01:26:39;17.70;;;10.90;;
77524;SDS011;66638;50.050;21.124;2023-08-06T01:32:57;14.80;;;9.50;;
77524;SDS011;66638;50.050;21.124;2023-08-06T01:38:34;20.90;;;11.20;;
77524;SDS011;66638;50.050;21.124;2023-08-06T01:41:22;18.10;;;10.80;;
77524;SDS011;66638;50.050;21.124;2023-08-06T01:44:09;18.20;;;11.00;;
77524;SDS011;66638;50.050;21.124;2023-08-06T01:46:56;17.10;;;10.80;;
77524;SDS011;66638;50.050;21.124;2023-08-06T01:49:43;17.10;;;11.30;;
77524;SDS011;66638;50.050;21.124;2023-08-06T01:52:30;15.80;;;11.20;;
77524;SDS011;66638;50.050;21.124;2023-08-06T01:55:17;15.50;;;9.90;;
77524;SDS011;66638;50.050;21.124;2023-08-06T01:58:05;14.60;;;10.60;;
77524;SDS011;66638;50.050;21.124;2023-08-06T02:00:53;14.80;;;10.20;;
77524;SDS011;66638;50.050;21.124;2023-08-06T02:03:40;16.10;;;10.70;;
77524;SDS011;66638;50.050;21.124;2023-08-06T02:06:27;16.40;;;10.50;;
77524;SDS011;66638;50.050;21.124;2023-08-06T02:09:14;13.40;;;9.80;;
77524;SDS011;66638;50.050;21.124;2023-08-06T02:12:02;15.60;;;10.10;;
77524;SDS011;66638;50.050;21.124;2023-08-06T02:14:50;15.80;;;10.70;;
77524;SDS011;66638;50.050;21.124;2023-08-06T02:17:39;13.90;;;9.90;;
77524;SDS011;66638;50.050;21.124;2023-08-06T02:20:26;13.50;;;9.90;;
77524;SDS011;66638;50.050;21.124;2023-08-06T02:23:15;17.40;;;11.20;;
77524;SDS011;66638;50.050;21.124;2023-08-06T02:26:04;16.90;;;9.00;;
77524;SDS011;66638;50.050;21.124;2023-08-06T02:28:51;10.70;;;9.00;;
77524;SDS011;66638;50.050;21.124;2023-08-06T02:31:39;18.80;;;11.10;;
77524;SDS011;66638;50.050;21.124;2023-08-06T02:34:26;14.70;;;11.10;;
77524;SDS011;66638;50.050;21.124;2023-08-06T02:37:13;13.40;;;10.00;;
77524;SDS011;66638;50.050;21.124;2023-08-06T02:40:01;15.80;;;9.10;;
77524;SDS011;66638;50.050;21.124;2023-08-06T02:42:49;12.00;;;9.90;;
77524;SDS011;66638;50.050;21.124;2023-08-06T02:45:37;14.70;;;10.20;;
77524;SDS011;66638;50.050;21.124;2023-08-06T02:48:24;15.50;;;10.10;;
77524;SDS011;66638;50.050;21.124;2023-08-06T02:51:11;19.70;;;12.30;;
77524;SDS011;66638;50.050;21.124;2023-08-06T02:53:58;16.70;;;11.00;;
77524;SDS011;66638;50.050;21.124;2023-08-06T02:56:46;17.30;;;11.20;;
77524;SDS011;66638;50.050;21.124;2023-08-06T02:59:38;17.50;;;12.30;;
77524;SDS011;66638;50.050;21.124;2023-08-06T03:02:35;16.50;;;11.30;;
77524;SDS011;66638;50.050;21.124;2023-08-06T03:05:36;14.60;;;11.20;;
77524;SDS011;66638;50.050;21.124;2023-08-06T03:08:23;18.40;;;11.80;;
77524;SDS011;66638;50.050;21.124;2023-08-06T03:11:11;15.90;;;11.30;;
77524;SDS011;66638;50.050;21.124;2023-08-06T03:13:58;18.70;;;14.40;;
77524;SDS011;66638;50.050;21.124;2023-08-06T03:16:47;12.90;;;8.70;;
77524;SDS011;66638;50.050;21.124;2023-08-06T03:19:35;19.80;;;12.60;;
77524;SDS011;66638;50.050;21.124;2023-08-06T03:22:22;20.60;;;14.30;;
77524;SDS011;66638;50.050;21.124;2023-08-06T03:25:10;18.70;;;13.40;;
77524;SDS011;66638;50.050;21.124;2023-08-06T03:27:57;16.50;;;10.70;;
77524;SDS011;66638;50.050;21.124;2023-08-06T03:30:45;23.50;;;14.50;;
77524;SDS011;66638;50.050;21.124;2023-08-06T03:33:32;21.60;;;14.70;;
77524;SDS011;66638;50.050;21.124;2023-08-06T03:36:20;21.80;;;16.10;;
77524;SDS011;66638;50.050;21.124;2023-08-06T03:39:08;25.50;;;15.70;;
77524;SDS011;66638;50.050;21.124;2023-08-06T03:41:55;21.30;;;14.70;;
77524;SDS011;66638;50.050;21.124;2023-08-06T03:44:43;22.80;;;14.10;;
77524;SDS011;66638;50.050;21.124;2023-08-06T03:47:30;23.80;;;14.00;;
77524;SDS011;66638;50.050;21.124;2023-08-06T03:50:17;25.10;;;14.40;;
77524;SDS011;66638;50.050;21.124;2023-08-06T03:53:05;24.60;;;14.80;;
77524;SDS011;66638;50.050;21.124;2023-08-06T03:55:52;26.30;;;15.70;;
77524;SDS011;66638;50.050;21.124;2023-08-06T03:58:39;21.30;;;13.50;;
77524;SDS011;66638;50.050;21.124;2023-08-06T04:01:28;21.60;;;14.20;;
77524;SDS011;66638;50.050;21.124;2023-08-06T04:04:15;20.10;;;14.30;;
77524;SDS011;66638;50.050;21.124;2023-08-06T04:07:03;21.90;;;14.50;;
77524;SDS011;66638;50.050;21.124;2023-08-06T04:09:55;21.80;;;13.00;;
77524;SDS011;66638;50.050;21.124;2023-08-06T04:12:43;19.90;;;13.10;;
77524;SDS011;66638;50.050;21.124;2023-08-06T04:15:33;23.80;;;13.90;;
77524;SDS011;66638;50.050;21.124;2023-08-06T04:18:21;17.40;;;12.00;;
77524;SDS011;66638;50.050;21.124;2023-08-06T04:21:08;17.50;;;11.70;;
77524;SDS011;66638;50.050;21.124;2023-08-06T04:23:56;17.90;;;12.00;;
77524;SDS011;66638;50.050;21.124;2023-08-06T04:26:43;17.60;;;10.90;;
77524;SDS011;66638;50.050;21.124;2023-08-06T04:29:31;18.40;;;11.90;;
77524;SDS011;66638;50.050;21.124;2023-08-06T04:32:19;17.80;;;11.70;;
77524;SDS011;66638;50.050;21.124;2023-08-06T04:35:08;21.40;;;12.70;;
77524;SDS011;66638;50.050;21.124;2023-08-06T04:37:56;16.50;;;11.10;;
77524;SDS011;66638;50.050;21.124;2023-08-06T04:40:43;16.70;;;11.30;;
77524;SDS011;66638;50.050;21.124;2023-08-06T04:43:30;14.20;;;10.10;;
77524;SDS011;66638;50.050;21.124;2023-08-06T04:46:17;16.20;;;11.40;;
77524;SDS011;66638;50.050;21.124;2023-08-06T04:49:04;14.60;;;10.70;;
77524;SDS011;66638;50.050;21.124;2023-08-06T04:51:51;17.00;;;11.70;;
77524;SDS011;66638;50.050;21.124;2023-08-06T04:54:39;16.00;;;10.30;;
77524;SDS011;66638;50.050;21.124;2023-08-06T04:57:26;16.00;;;11.50;;
77524;SDS011;66638;50.050;21.124;2023-08-06T05:00:13;17.40;;;11.40;;
77524;SDS011;66638;50.050;21.124;2023-08-06T05:03:00;15.10;;;10.10;;
77524;SDS011;66638;50.050;21.124;2023-08-06T05:05:48;13.70;;;10.60;;
77524;SDS011;66638;50.050;21.124;2023-08-06T05:08:36;13.30;;;10.40;;
77524;SDS011;66638;50.050;21.124;2023-08-06T05:11:24;15.90;;;9.50;;
77524;SDS011;66638;50.050;21.124;2023-08-06T05:14:11;15.10;;;10.70;;
77524;SDS011;66638;50.050;21.124;2023-08-06T05:16:58;14.60;;;9.60;;
77524;SDS011;66638;50.050;21.124;2023-08-06T05:19:46;13.60;;;10.10;;
77524;SDS011;66638;50.050;21.124;2023-08-06T05:22:33;13.90;;;10.00;;
77524;SDS011;66638;50.050;21.124;2023-08-06T05:25:20;12.60;;;9.70;;
77524;SDS011;66638;50.050;21.124;2023-08-06T05:28:07;13.60;;;8.60;;
77524;SDS011;66638;50.050;21.124;2023-08-06T05:30:55;11.60;;;9.10;;
77524;SDS011;66638;50.050;21.124;2023-08-06T05:33:41;12.90;;;8.90;;
77524;SDS011;66638;50.050;21.124;2023-08-06T05:36:28;10.20;;;8.40;;
77524;SDS011;66638;50.050;21.124;2023-08-06T05:39:16;10.40;;;8.40;;
77524;SDS011;66638;50.050;21.124;2023-08-06T05:42:03;10.00;;;8.10;;
77524;SDS011;66638;50.050;21.124;2023-08-06T05:44:51;10.90;;;8.20;;
77524;SDS011;66638;50.050;21.124;2023-08-06T05:47:39;10.70;;;8.40;;
77524;SDS011;66638;50.050;21.124;2023-08-06T05:50:26;11.20;;;8.70;;
77524;SDS011;66638;50.050;21.124;2023-08-06T05:53:14;9.80;;;7.90;;
77524;SDS011;66638;50.050;21.124;2023-08-06T05:56:01;9.10;;;7.90;;
77524;SDS011;66638;50.050;21.124;2023-08-06T05:58:49;10.60;;;7.30;;
77524;SDS011;66638;50.050;21.124;2023-08-06T06:01:38;9.60;;;7.10;;
77524;SDS011;66638;50.050;21.124;2023-08-06T06:04:25;9.60;;;7.30;;
77524;SDS011;66638;50.050;21.124;2023-08-06T06:07:12;11.20;;;8.40;;
77524;SDS011;66638;50.050;21.124;2023-08-06T06:10:00;10.50;;;7.90;;
77524;SDS011;66638;50.050;21.124;2023-08-06T06:12:48;11.20;;;8.30;;
77524;SDS011;66638;50.050;21.124;2023-08-06T06:15:35;9.70;;;7.50;;
77524;SDS011;66638;50.050;21.124;2023-08-06T06:18:23;9.40;;;8.10;;
77524;SDS011;66638;50.050;21.124;2023-08-06T06:21:10;9.10;;;8.00;;
77524;SDS011;66638;50.050;21.124;2023-08-06T06:23:58;10.20;;;7.60;;
77524;SDS011;66638;50.050;21.124;2023-08-06T06:26:45;9.40;;;7.40;;
77524;SDS011;66638;50.050;21.124;2023-08-06T06:29:33;9.60;;;7.70;;
77524;SDS011;66638;50.050;21.124;2023-08-06T06:32:20;12.00;;;8.70;;
77524;SDS011;66638;50.050;21.124;2023-08-06T06:35:08;9.00;;;7.70;;
77524;SDS011;66638;50.050;21.124;2023-08-06T06:37:56;9.10;;;7.00;;
77524;SDS011;66638;50.050;21.124;2023-08-06T06:40:43;8.60;;;6.30;;
77524;SDS011;66638;50.050;21.124;2023-08-06T06:43:30;10.20;;;6.90;;
77524;SDS011;66638;50.050;21.124;2023-08-06T06:46:17;8.50;;;7.60;;
77524;SDS011;66638;50.050;21.124;2023-08-06T06:49:04;9.80;;;7.90;;
77524;SDS011;66638;50.050;21.124;2023-08-06T06:51:51;9.60;;;7.50;;
77524;SDS011;66638;50.050;21.124;2023-08-06T06:54:39;10.50;;;7.90;;
77524;SDS011;66638;50.050;21.124;2023-08-06T06:57:26;9.40;;;8.20;;
77524;SDS011;66638;50.050;21.124;2023-08-06T07:00:14;9.10;;;7.40;;
77524;SDS011;66638;50.050;21.124;2023-08-06T07:03:01;7.70;;;6.80;;
77524;SDS011;66638;50.050;21.124;2023-08-06T07:05:49;9.70;;;7.70;;
77524;SDS011;66638;50.050;21.124;2023-08-06T07:08:37;10.20;;;8.50;;
77524;SDS011;66638;50.050;21.124;2023-08-06T07:11:24;8.90;;;7.20;;
77524;SDS011;66638;50.050;21.124;2023-08-06T07:14:12;9.90;;;8.20;;
77524;SDS011;66638;50.050;21.124;2023-08-06T07:17:01;8.50;;;7.60;;
77524;SDS011;66638;50.050;21.124;2023-08-06T07:19:48;8.40;;;7.60;;
77524;SDS011;66638;50.050;21.124;2023-08-06T07:22:35;9.50;;;8.60;;
77524;SDS011;66638;50.050;21.124;2023-08-06T07:25:22;9.20;;;7.30;;
77524;SDS011;66638;50.050;21.124;2023-08-06T07:28:11;8.00;;;7.20;;
77524;SDS011;66638;50.050;21.124;2023-08-06T07:30:58;9.70;;;7.60;;
77524;SDS011;66638;50.050;21.124;2023-08-06T07:33:46;8.20;;;7.40;;
77524;SDS011;66638;50.050;21.124;2023-08-06T07:36:38;9.20;;;8.00;;
77524;SDS011;66638;50.050;21.124;2023-08-06T07:39:25;7.90;;;7.10;;
77524;SDS011;66638;50.050;21.124;2023-08-06T07:42:15;8.60;;;7.30;;
77524;SDS011;66638;50.050;21.124;2023-08-06T07:45:03;8.00;;;6.40;;
77524;SDS011;66638;50.050;21.124;2023-08-06T07:47:51;7.50;;;6.80;;
77524;SDS011;66638;50.050;21.124;2023-08-06T07:50:39;8.20;;;7.00;;
77524;SDS011;66638;50.050;21.124;2023-08-06T07:53:26;9.20;;;7.00;;
77524;SDS011;66638;50.050;21.124;2023-08-06T07:56:15;12.60;;;7.40;;
77524;SDS011;66638;50.050;21.124;2023-08-06T07:59:03;7.40;;;6.40;;
77524;SDS011;66638;50.050;21.124;2023-08-06T08:01:51;8.30;;;6.30;;
77524;SDS011;66638;50.050;21.124;2023-08-06T08:04:39;6.10;;;5.50;;
77524;SDS011;66638;50.050;21.124;2023-08-06T08:07:28;7.80;;;5.80;;
77524;SDS011;66638;50.050;21.124;2023-08-06T08:10:17;3.90;;;3.00;;
77524;SDS011;66638;50.050;21.124;2023-08-06T08:13:04;3.70;;;2.60;;
77524;SDS011;66638;50.050;21.124;2023-08-06T08:15:56;3.20;;;2.70;;
77524;SDS011;66638;50.050;21.124;2023-08-06T08:18:44;3.40;;;2.20;;
77524;SDS011;66638;50.050;21.124;2023-08-06T08:21:32;2.90;;;2.30;;
77524;SDS011;66638;50.050;21.124;2023-08-06T08:24:20;3.00;;;2.20;;
77524;SDS011;66638;50.050;21.124;2023-08-06T08:27:10;3.30;;;2.30;;
77524;SDS011;66638;50.050;21.124;2023-08-06T08:29:58;2.50;;;1.80;;
77524;SDS011;66638;50.050;21.124;2023-08-06T08:32:52;2.70;;;1.80;;
77524;SDS011;66638;50.050;21.124;2023-08-06T08:35:39;3.50;;;1.80;;
77524;SDS011;66638;50.050;21.124;2023-08-06T08:38:27;2.50;;;1.90;;
77524;SDS011;66638;50.050;21.124;2023-08-06T08:41:15;2.30;;;1.60;;
77524;SDS011;66638;50.050;21.124;2023-08-06T08:44:03;2.30;;;1.50;;
77524;SDS011;66638;50.050;21.124;2023-08-06T08:46:53;3.10;;;1.50;;
77524;SDS011;66638;50.050;21.124;2023-08-06T08:49:40;2.10;;;1.50;;
77524;SDS011;66638;50.050;21.124;2023-08-06T08:52:28;3.40;;;1.30;;
77524;SDS011;66638;50.050;21.124;2023-08-06T08:55:18;1.80;;;1.30;;
77524;SDS011;66638;50.050;21.124;2023-08-06T08:58:09;1.50;;;1.40;;
77524;SDS011;66638;50.050;21.124;2023-08-06T09:00:55;2.00;;;1.30;;
77524;SDS011;66638;50.050;21.124;2023-08-06T09:03:43;1.80;;;1.40;;
77524;SDS011;66638;50.050;21.124;2023-08-06T09:06:36;1.60;;;1.20;;
77524;SDS011;66638;50.050;21.124;2023-08-06T09:09:26;1.30;;;0.90;;
77524;SDS011;66638;50.050;21.124;2023-08-06T09:12:15;3.50;;;1.40;;
77524;SDS011;66638;50.050;21.124;2023-08-06T09:15:03;2.40;;;1.40;;
77524;SDS011;66638;50.050;21.124;2023-08-06T09:17:52;1.60;;;1.10;;
77524;SDS011;66638;50.050;21.124;2023-08-06T09:20:39;2.40;;;1.50;;
77524;SDS011;66638;50.050;21.124;2023-08-06T09:23:27;1.60;;;1.30;;
77524;SDS011;66638;50.050;21.124;2023-08-06T09:29:05;3.40;;;1.60;;
77524;SDS011;66638;50.050;21.124;2023-08-06T09:31:58;1.90;;;1.30;;
77524;SDS011;66638;50.050;21.124;2023-08-06T09:34:45;1.70;;;1.30;;
77524;SDS011;66638;50.050;21.124;2023-08-06T09:37:36;2.20;;;1.30;;
77524;SDS011;66638;50.050;21.124;2023-08-06T09:40:32;2.10;;;1.20;;
77524;SDS011;66638;50.050;21.124;2023-08-06T09:43:20;2.30;;;1.20;;
77524;SDS011;66638;50.050;21.124;2023-08-06T09:46:11;2.50;;;1.20;;
77524;SDS011;66638;50.050;21.124;2023-08-06T09:49:00;2.30;;;1.20;;
77524;SDS011;66638;50.050;21.124;2023-08-06T09:51:48;1.60;;;1.30;;
77524;SDS011;66638;50.050;21.124;2023-08-06T09:54:43;1.50;;;1.20;;
77524;SDS011;66638;50.050;21.124;2023-08-06T09:57:30;1.60;;;1.20;;
77524;SDS011;66638;50.050;21.124;2023-08-06T10:00:18;1.60;;;1.00;;
77524;SDS011;66638;50.050;21.124;2023-08-06T10:03:06;1.70;;;1.20;;
77524;SDS011;66638;50.050;21.124;2023-08-06T10:05:55;2.20;;;1.00;;
77524;SDS011;66638;50.050;21.124;2023-08-06T10:08:43;2.20;;;1.10;;
77524;SDS011;66638;50.050;21.124;2023-08-06T10:11:31;1.50;;;1.00;;
77524;SDS011;66638;50.050;21.124;2023-08-06T10:14:24;1.60;;;0.90;;
77524;SDS011;66638;50.050;21.124;2023-08-06T10:17:12;0.80;;;0.80;;
77524;SDS011;66638;50.050;21.124;2023-08-06T10:20:00;1.00;;;0.90;;
77524;SDS011;66638;50.050;21.124;2023-08-06T10:22:54;1.60;;;1.10;;
77524;SDS011;66638;50.050;21.124;2023-08-06T10:25:53;1.70;;;1.20;;
77524;SDS011;66638;50.050;21.124;2023-08-06T10:37:47;2.50;;;1.00;;
77524;SDS011;66638;50.050;21.124;2023-08-06T10:40:43;1.10;;;1.00;;
77524;SDS011;66638;50.050;21.124;2023-08-06T10:44:05;1.20;;;0.90;;
77524;SDS011;66638;50.050;21.124;2023-08-06T10:46:55;1.80;;;1.00;;
77524;SDS011;66638;50.050;21.124;2023-08-06T10:49:42;1.20;;;1.00;;
77524;SDS011;66638;50.050;21.124;2023-08-06T10:52:30;1.20;;;1.10;;
77524;SDS011;66638;50.050;21.124;2023-08-06T10:55:24;1.40;;;1.00;;
77524;SDS011;66638;50.050;21.124;2023-08-06T10:58:15;1.70;;;1.00;;
77524;SDS011;66638;50.050;21.124;2023-08-06T11:01:03;1.20;;;1.00;;
77524;SDS011;66638;50.050;21.124;2023-08-06T11:03:51;1.60;;;1.00;;
77524;SDS011;66638;50.050;21.124;2023-08-06T11:06:39;1.60;;;1.00;;
77524;SDS011;66638;50.050;21.124;2023-08-06T11:09:29;1.60;;;1.10;;
77524;SDS011;66638;50.050;21.124;2023-08-06T11:12:19;1.10;;;0.90;;
77524;SDS011;66638;50.050;21.124;2023-08-06T11:15:06;0.90;;;0.90;;
77524;SDS011;66638;50.050;21.124;2023-08-06T11:17:55;1.00;;;0.80;;
77524;SDS011;66638;50.050;21.124;2023-08-06T11:20:42;1.80;;;1.10;;
77524;SDS011;66638;50.050;21.124;2023-08-06T11:23:29;1.60;;;1.00;;
77524;SDS011;66638;50.050;21.124;2023-08-06T11:26:21;1.20;;;0.90;;
77524;SDS011;66638;50.050;21.124;2023-08-06T11:29:10;1.50;;;1.00;;
77524;SDS011;66638;50.050;21.124;2023-08-06T11:32:04;4.20;;;1.50;;
77524;SDS011;66638;50.050;21.124;2023-08-06T11:34:52;2.80;;;1.60;;
77524;SDS011;66638;50.050;21.124;2023-08-06T11:37:45;2.00;;;1.20;;
77524;SDS011;66638;50.050;21.124;2023-08-06T11:40:33;2.40;;;1.40;;
77524;SDS011;66638;50.050;21.124;2023-08-06T11:43:22;1.80;;;1.20;;
77524;SDS011;66638;50.050;21.124;2023-08-06T11:46:10;2.40;;;1.60;;
77524;SDS011;66638;50.050;21.124;2023-08-06T11:48:58;1.60;;;1.30;;
77524;SDS011;66638;50.050;21.124;2023-08-06T11:51:46;3.90;;;1.60;;
77524;SDS011;66638;50.050;21.124;2023-08-06T11:54:33;2.10;;;1.50;;
77524;SDS011;66638;50.050;21.124;2023-08-06T11:57:21;2.70;;;1.80;;
77524;SDS011;66638;50.050;21.124;2023-08-06T12:00:09;2.70;;;1.80;;
77524;SDS011;66638;50.050;21.124;2023-08-06T12:03:04;2.50;;;1.80;;
77524;SDS011;66638;50.050;21.124;2023-08-06T12:05:53;2.60;;;1.70;;
77524;SDS011;66638;50.050;21.124;2023-08-06T12:08:40;2.30;;;1.60;;
77524;SDS011;66638;50.050;21.124;2023-08-06T12:11:29;2.70;;;2.00;;
77524;SDS011;66638;50.050;21.124;2023-08-06T12:14:16;2.90;;;2.00;;
77524;SDS011;66638;50.050;21.124;2023-08-06T12:17:03;4.40;;;1.90;;
77524;SDS011;66638;50.050;21.124;2023-08-06T12:19:50;3.00;;;2.10;;
77524;SDS011;66638;50.050;21.124;2023-08-06T12:22:37;3.00;;;2.20;;
77524;SDS011;66638;50.050;21.124;2023-08-06T12:25:28;2.80;;;1.80;;
77524;SDS011;66638;50.050;21.124;2023-08-06T12:28:15;2.50;;;1.70;;
77524;SDS011;66638;50.050;21.124;2023-08-06T12:31:02;2.50;;;1.90;;
77524;SDS011;66638;50.050;21.124;2023-08-06T12:33:50;2.80;;;1.90;;
77524;SDS011;66638;50.050;21.124;2023-08-06T12:36:37;2.40;;;1.60;;
77524;SDS011;66638;50.050;21.124;2023-08-06T12:39:24;2.50;;;1.70;;
77524;SDS011;66638;50.050;21.124;2023-08-06T12:42:11;3.50;;;1.70;;
77524;SDS011;66638;50.050;21.124;2023-08-06T12:44:58;3.50;;;1.60;;
77524;SDS011;66638;50.050;21.124;2023-08-06T12:47:45;3.40;;;1.60;;
77524;SDS011;66638;50.050;21.124;2023-08-06T12:50:33;3.90;;;1.70;;
77524;SDS011;66638;50.050;21.124;2023-08-06T12:53:21;2.20;;;1.60;;
77524;SDS011;66638;50.050;21.124;2023-08-06T12:56:10;2.30;;;1.50;;
77524;SDS011;66638;50.050;21.124;2023-08-06T12:58:57;2.00;;;1.50;;
77524;SDS011;66638;50.050;21.124;2023-08-06T13:01:44;1.90;;;1.20;;
77524;SDS011;66638;50.050;21.124;2023-08-06T13:04:32;2.60;;;1.40;;
77524;SDS011;66638;50.050;21.124;2023-08-06T13:07:21;2.20;;;1.50;;
77524;SDS011;66638;50.050;21.124;2023-08-06T13:10:10;2.90;;;1.40;;
77524;SDS011;66638;50.050;21.124;2023-08-06T13:12:57;3.30;;;1.60;;
77524;SDS011;66638;50.050;21.124;2023-08-06T13:15:44;2.70;;;1.60;;
77524;SDS011;66638;50.050;21.124;2023-08-06T13:18:32;2.10;;;1.40;;
77524;SDS011;66638;50.050;21.124;2023-08-06T13:21:20;1.90;;;1.40;;
77524;SDS011;66638;50.050;21.124;2023-08-06T13:24:09;2.60;;;1.60;;
77524;SDS011;66638;50.050;21.124;2023-08-06T13:26:57;3.50;;;1.40;;
77524;SDS011;66638;50.050;21.124;2023-08-06T13:29:44;2.20;;;1.50;;
77524;SDS011;66638;50.050;21.124;2023-08-06T13:32:34;1.90;;;1.40;;
77524;SDS011;66638;50.050;21.124;2023-08-06T13:35:23;5.00;;;1.70;;
77524;SDS011;66638;50.050;21.124;2023-08-06T13:38:12;1.80;;;1.10;;
77524;SDS011;66638;50.050;21.124;2023-08-06T13:41:00;2.10;;;1.20;;
77524;SDS011;66638;50.050;21.124;2023-08-06T13:43:48;1.50;;;1.20;;
77524;SDS011;66638;50.050;21.124;2023-08-06T13:46:37;2.50;;;1.20;;
77524;SDS011;66638;50.050;21.124;2023-08-06T13:49:25;1.40;;;1.10;;
77524;SDS011;66638;50.050;21.124;2023-08-06T13:52:14;1.50;;;1.10;;
77524;SDS011;66638;50.050;21.124;2023-08-06T13:55:01;2.50;;;1.30;;
77524;SDS011;66638;50.050;21.124;2023-08-06T13:57:51;1.20;;;0.90;;
77524;SDS011;66638;50.050;21.124;2023-08-06T14:00:40;1.60;;;1.10;;
77524;SDS011;66638;50.050;21.124;2023-08-06T14:03:31;1.00;;;0.80;;
77524;SDS011;66638;50.050;21.124;2023-08-06T14:06:19;0.70;;;0.70;;
77524;SDS011;66638;50.050;21.124;2023-08-06T14:09:07;2.20;;;0.90;;
77524;SDS011;66638;50.050;21.124;2023-08-06T14:11:56;1.10;;;0.80;;
77524;SDS011;66638;50.050;21.124;2023-08-06T14:14:47;3.00;;;1.80;;
77524;SDS011;66638;50.050;21.124;2023-08-06T14:17:36;0.70;;;0.50;;
77524;SDS011;66638;50.050;21.124;2023-08-06T14:20:24;1.30;;;0.80;;
77524;SDS011;66638;50.050;21.124;2023-08-06T14:23:12;1.10;;;0.80;;
77524;SDS011;66638;50.050;21.124;2023-08-06T14:25:59;1.90;;;0.70;;
77524;SDS011;66638;50.050;21.124;2023-08-06T14:28:47;1.30;;;0.80;;
77524;SDS011;66638;50.050;21.124;2023-08-06T14:31:35;1.60;;;0.60;;
77524;SDS011;66638;50.050;21.124;2023-08-06T14:34:24;1.10;;;0.60;;
77524;SDS011;66638;50.050;21.124;2023-08-06T14:37:12;1.10;;;0.90;;
77524;SDS011;66638;50.050;21.124;2023-08-06T14:40:00;1.50;;;0.90;;
77524;SDS011;66638;50.050;21.124;2023-08-06T14:42:47;0.90;;;0.80;;
77524;SDS011;66638;50.050;21.124;2023-08-06T14:45:37;1.00;;;0.90;;
77524;SDS011;66638;50.050;21.124;2023-08-06T14:48:27;0.60;;;0.40;;
77524;SDS011;66638;50.050;21.124;2023-08-06T14:51:16;5.50;;;5.00;;
77524;SDS011;66638;50.050;21.124;2023-08-06T14:54:08;0.60;;;0.60;;
77524;SDS011;66638;50.050;21.124;2023-08-06T14:56:56;0.60;;;0.50;;
77524;SDS011;66638;50.050;21.124;2023-08-06T14:59:44;0.70;;;0.60;;
77524;SDS011;66638;50.050;21.124;2023-08-06T15:02:34;0.70;;;0.70;;
77524;SDS011;66638;50.050;21.124;2023-08-06T15:05:21;0.60;;;0.60;;
77524;SDS011;66638;50.050;21.124;2023-08-06T15:08:09;2.40;;;2.20;;
77524;SDS011;66638;50.050;21.124;2023-08-06T15:10:56;1.10;;;0.60;;
77524;SDS011;66638;50.050;21.124;2023-08-06T15:13:46;0.60;;;0.60;;
77524;SDS011;66638;50.050;21.124;2023-08-06T15:16:35;0.60;;;0.60;;
77524;SDS011;66638;50.050;21.124;2023-08-06T15:19:24;0.60;;;0.50;;
77524;SDS011;66638;50.050;21.124;2023-08-06T15:22:13;0.80;;;0.60;;
77524;SDS011;66638;50.050;21.124;2023-08-06T15:25:02;0.90;;;0.60;;
77524;SDS011;66638;50.050;21.124;2023-08-06T15:27:50;0.60;;;0.60;;
77524;SDS011;66638;50.050;21.124;2023-08-06T15:30:38;1.50;;;0.60;;
77524;SDS011;66638;50.050;21.124;2023-08-06T15:33:28;1.10;;;0.60;;
77524;SDS011;66638;50.050;21.124;2023-08-06T15:36:15;0.50;;;0.50;;
77524;SDS011;66638;50.050;21.124;2023-08-06T15:39:02;1.10;;;0.90;;
77524;SDS011;66638;50.050;21.124;2023-08-06T15:41:53;0.80;;;0.80;;
77524;SDS011;66638;50.050;21.124;2023-08-06T15:44:41;1.40;;;0.90;;
77524;SDS011;66638;50.050;21.124;2023-08-06T15:47:28;1.10;;;0.80;;
77524;SDS011;66638;50.050;21.124;2023-08-06T15:50:18;1.10;;;0.80;;
77524;SDS011;66638;50.050;21.124;2023-08-06T15:53:06;3.10;;;1.30;;
77524;SDS011;66638;50.050;21.124;2023-08-06T15:55:54;2.40;;;1.50;;
77524;SDS011;66638;50.050;21.124;2023-08-06T15:58:41;1.90;;;1.40;;
77524;SDS011;66638;50.050;21.124;2023-08-06T16:01:28;3.60;;;2.00;;
77524;SDS011;66638;50.050;21.124;2023-08-06T16:04:16;6.00;;;3.50;;
77524;SDS011;66638;50.050;21.124;2023-08-06T16:07:03;5.60;;;3.50;;
77524;SDS011;66638;50.050;21.124;2023-08-06T16:09:51;5.00;;;3.40;;
77524;SDS011;66638;50.050;21.124;2023-08-06T16:12:41;3.20;;;1.90;;
77524;SDS011;66638;50.050;21.124;2023-08-06T16:15:28;5.30;;;2.70;;
77524;SDS011;66638;50.050;21.124;2023-08-06T16:18:17;5.00;;;3.20;;
77524;SDS011;66638;50.050;21.124;2023-08-06T16:21:04;4.50;;;3.00;;
77524;SDS011;66638;50.050;21.124;2023-08-06T16:23:52;6.30;;;2.40;;
77524;SDS011;66638;50.050;21.124;2023-08-06T16:26:39;3.60;;;2.10;;
77524;SDS011;66638;50.050;21.124;2023-08-06T16:29:26;2.90;;;1.60;;
77524;SDS011;66638;50.050;21.124;2023-08-06T16:32:24;2.80;;;1.60;;
77524;SDS011;66638;50.050;21.124;2023-08-06T16:35:11;2.00;;;1.50;;
77524;SDS011;66638;50.050;21.124;2023-08-06T16:37:59;3.30;;;1.90;;
77524;SDS011;66638;50.050;21.124;2023-08-06T16:40:52;5.70;;;3.30;;
77524;SDS011;66638;50.050;21.124;2023-08-06T16:43:40;6.10;;;3.10;;
77524;SDS011;66638;50.050;21.124;2023-08-06T16:46:27;4.70;;;2.50;;
77524;SDS011;66638;50.050;21.124;2023-08-06T16:49:15;4.00;;;2.40;;
77524;SDS011;66638;50.050;21.124;2023-08-06T16:52:02;3.60;;;2.10;;